sensor_id;sensor_type;location;lat;lon;timestamp;pressure;altitude;pressure_sealevel;temperature;humidity
57801;BME280;43627;42.728;23.256;2023-11-21T00:00:17;94834.16;;;3.63;100.00
57801;BME280;43627;42.728;23.256;2023-11-21T00:02:49;94834.97;;;3.43;100.00
57801;BME280;43627;42.728;23.256;2023-11-21T00:05:16;94847.41;;;3.37;100.00
57801;BME280;43627;42.728;23.256;2023-11-21T00:07:47;94839.81;;;3.32;100.00
57801;BME280;43627;42.728;23.256;2023-11-21T00:10:17;94834.25;;;3.23;100.00
57801;BME280;43627;42.728;23.256;2023-11-21T00:12:48;94844.34;;;2.99;100.00
57801;BME280;43627;42.728;23.256;2023-11-21T00:15:15;94835.84;;;3.01;100.00
57801;BME280;43627;42.728;23.256;2023-11-21T00:17:42;94840.59;;;3.13;100.00
57801;BME280;43627;42.728;23.256;2023-11-21T00:20:09;94838.94;;;3.19;100.00
57801;BME280;43627;42.728;23.256;2023-11-21T00:22:40;94839.13;;;3.28;100.00
57801;BME280;43627;42.728;23.256;2023-11-21T00:25:07;94834.91;;;3.27;100.00
57801;BME280;43627;42.728;23.256;2023-11-21T00:27:38;94835.53;;;3.35;100.00
57801;BME280;43627;42.728;23.256;2023-11-21T00:30:05;94829.28;;;3.38;100.00
57801;BME280;43627;42.728;23.256;2023-11-21T00:32:33;94834.06;;;3.30;100.00
57801;BME280;43627;42.728;23.256;2023-11-21T00:35:00;94804.88;;;3.09;100.00
57801;BME280;43627;42.728;23.256;2023-11-21T00:37:27;94843.00;;;3.27;100.00
57801;BME280;43627;42.728;23.256;2023-11-21T00:39:54;94836.09;;;3.26;100.00
57801;BME280;43627;42.728;23.256;2023-11-21T00:42:21;94831.19;;;3.21;100.00
57801;BME280;43627;42.728;23.256;2023-11-21T00:44:48;94831.81;;;3.09;100.00
57801;BME280;43627;42.728;23.256;2023-11-21T00:47:15;94836.97;;;3.03;100.00
57801;BME280;43627;42.728;23.256;2023-11-21T00:49:42;94835.91;;;3.17;100.00
57801;BME280;43627;42.728;23.256;2023-11-21T00:52:10;94831.59;;;3.20;100.00
57801;BME280;43627;42.728;23.256;2023-11-21T00:54:36;94829.69;;;3.00;100.00
57801;BME280;43627;42.728;23.256;2023-11-21T00:57:04;94823.69;;;2.93;100.00
57801;BME280;43627;42.728;23.256;2023-11-21T00:59:31;94823.34;;;2.91;100.00
57801;BME280;43627;42.728;23.256;2023-11-21T01:02:01;94817.63;;;2.89;100.00
57801;BME280;43627;42.728;23.256;2023-11-21T01:04:29;94815.34;;;2.87;100.00
57801;BME280;43627;42.728;23.256;2023-11-21T01:06:56;94810.59;;;2.75;100.00
57801;BME280;43627;42.728;23.256;2023-11-21T01:09:23;94801.94;;;2.83;100.00
57801;BME280;43627;42.728;23.256;2023-11-21T01:11:50;94814.31;;;2.81;100.00
57801;BME280;43627;42.728;23.256;2023-11-21T01:14:18;94811.72;;;2.94;100.00
57801;BME280;43627;42.728;23.256;2023-11-21T01:16:45;94812.56;;;2.91;100.00
57801;BME280;43627;42.728;23.256;2023-11-21T01:19:12;94813.41;;;2.88;100.00
57801;BME280;43627;42.728;23.256;2023-11-21T01:21:39;94814.50;;;2.70;100.00
57801;BME280;43627;42.728;23.256;2023-11-21T01:24:07;94821.53;;;2.64;100.00
57801;BME280;43627;42.728;23.256;2023-11-21T01:26:34;94818.63;;;2.55;100.00
57801;BME280;43627;42.728;23.256;2023-11-21T01:29:01;94809.81;;;2.74;100.00
57801;BME280;43627;42.728;23.256;2023-11-21T01:31:28;94808.09;;;2.64;100.00
57801;BME280;43627;42.728;23.256;2023-11-21T01:33:56;94818.31;;;2.73;100.00
57801;BME280;43627;42.728;23.256;2023-11-21T01:36:29;94821.97;;;2.63;100.00
57801;BME280;43627;42.728;23.256;2023-11-21T01:38:56;94827.09;;;2.57;100.00
57801;BME280;43627;42.728;23.256;2023-11-21T01:41:28;94816.97;;;2.41;100.00
57801;BME280;43627;42.728;23.256;2023-11-21T01:43:55;94816.59;;;2.19;100.00
57801;BME280;43627;42.728;23.256;2023-11-21T01:46:22;94809.16;;;2.27;100.00
57801;BME280;43627;42.728;23.256;2023-11-21T01:48:51;94803.94;;;2.40;100.00
57801;BME280;43627;42.728;23.256;2023-11-21T01:51:19;94799.97;;;2.24;100.00
57801;BME280;43627;42.728;23.256;2023-11-21T01:53:47;94798.09;;;2.02;100.00
57801;BME280;43627;42.728;23.256;2023-11-21T01:56:14;94811.22;;;1.96;100.00
57801;BME280;43627;42.728;23.256;2023-11-21T01:58:41;94813.34;;;1.85;100.00
57801;BME280;43627;42.728;23.256;2023-11-21T02:01:09;94811.69;;;1.67;100.00
57801;BME280;43627;42.728;23.256;2023-11-21T02:03:36;94822.09;;;1.38;100.00
57801;BME280;43627;42.728;23.256;2023-11-21T02:06:03;94818.28;;;1.36;100.00
57801;BME280;43627;42.728;23.256;2023-11-21T02:08:30;94812.91;;;1.36;100.00
57801;BME280;43627;42.728;23.256;2023-11-21T02:10:58;94818.19;;;1.43;100.00
57801;BME280;43627;42.728;23.256;2023-11-21T02:13:25;94815.13;;;1.41;100.00
57801;BME280;43627;42.728;23.256;2023-11-21T02:15:52;94813.06;;;1.52;100.00
57801;BME280;43627;42.728;23.256;2023-11-21T02:18:21;94809.84;;;1.61;100.00
57801;BME280;43627;42.728;23.256;2023-11-21T02:20:49;94804.78;;;1.66;100.00
57801;BME280;43627;42.728;23.256;2023-11-21T02:23:16;94804.88;;;1.59;100.00
57801;BME280;43627;42.728;23.256;2023-11-21T02:25:47;94803.03;;;1.56;100.00
57801;BME280;43627;42.728;23.256;2023-11-21T02:28:14;94802.19;;;1.59;100.00
57801;BME280;43627;42.728;23.256;2023-11-21T02:30:45;94805.38;;;1.54;100.00
57801;BME280;43627;42.728;23.256;2023-11-21T02:33:13;94803.38;;;1.58;100.00
57801;BME280;43627;42.728;23.256;2023-11-21T02:35:40;94796.81;;;1.59;100.00
57801;BME280;43627;42.728;23.256;2023-11-21T02:38:09;94807.47;;;1.66;100.00
57801;BME280;43627;42.728;23.256;2023-11-21T02:40:36;94805.53;;;1.67;100.00
57801;BME280;43627;42.728;23.256;2023-11-21T02:43:03;94798.19;;;1.71;100.00
57801;BME280;43627;42.728;23.256;2023-11-21T02:45:32;94799.53;;;1.83;100.00
57801;BME280;43627;42.728;23.256;2023-11-21T02:47:59;94798.06;;;1.78;100.00
57801;BME280;43627;42.728;23.256;2023-11-21T02:50:26;94802.78;;;1.70;100.00
57801;BME280;43627;42.728;23.256;2023-11-21T02:52:54;94804.28;;;1.75;100.00
57801;BME280;43627;42.728;23.256;2023-11-21T02:55:21;94802.34;;;1.76;100.00
57801;BME280;43627;42.728;23.256;2023-11-21T02:57:47;94799.66;;;1.76;100.00
57801;BME280;43627;42.728;23.256;2023-11-21T03:00:14;94781.59;;;1.76;100.00
57801;BME280;43627;42.728;23.256;2023-11-21T03:02:42;94797.13;;;1.88;100.00
57801;BME280;43627;42.728;23.256;2023-11-21T03:05:09;94792.16;;;2.10;100.00
57801;BME280;43627;42.728;23.256;2023-11-21T03:07:37;94788.47;;;2.24;100.00
57801;BME280;43627;42.728;23.256;2023-11-21T03:10:04;94783.06;;;2.24;100.00
57801;BME280;43627;42.728;23.256;2023-11-21T03:12:31;94799.22;;;2.24;100.00
57801;BME280;43627;42.728;23.256;2023-11-21T03:14:58;94792.78;;;2.18;100.00
57801;BME280;43627;42.728;23.256;2023-11-21T03:17:24;94804.38;;;2.15;100.00
57801;BME280;43627;42.728;23.256;2023-11-21T03:19:51;94813.28;;;2.12;100.00
57801;BME280;43627;42.728;23.256;2023-11-21T03:22:19;94804.34;;;2.18;100.00
57801;BME280;43627;42.728;23.256;2023-11-21T03:24:45;94801.88;;;2.27;100.00
57801;BME280;43627;42.728;23.256;2023-11-21T03:27:13;94806.06;;;2.28;100.00
57801;BME280;43627;42.728;23.256;2023-11-21T03:29:39;94805.91;;;2.36;100.00
57801;BME280;43627;42.728;23.256;2023-11-21T03:32:06;94805.81;;;2.43;100.00
57801;BME280;43627;42.728;23.256;2023-11-21T03:34:34;94803.88;;;2.43;100.00
57801;BME280;43627;42.728;23.256;2023-11-21T03:37:01;94800.06;;;2.41;100.00
57801;BME280;43627;42.728;23.256;2023-11-21T03:39:28;94802.44;;;2.39;100.00
57801;BME280;43627;42.728;23.256;2023-11-21T03:41:56;94792.09;;;2.37;100.00
57801;BME280;43627;42.728;23.256;2023-11-21T03:44:33;94788.69;;;2.53;100.00
57801;BME280;43627;42.728;23.256;2023-11-21T03:47:00;94773.59;;;2.59;100.00
57801;BME280;43627;42.728;23.256;2023-11-21T03:49:27;94774.97;;;2.67;100.00
57801;BME280;43627;42.728;23.256;2023-11-21T03:51:55;94778.09;;;2.66;100.00
57801;BME280;43627;42.728;23.256;2023-11-21T03:54:22;94780.16;;;2.58;100.00
57801;BME280;43627;42.728;23.256;2023-11-21T03:56:49;94778.56;;;2.17;100.00
57801;BME280;43627;42.728;23.256;2023-11-21T03:59:16;94790.50;;;2.16;100.00
57801;BME280;43627;42.728;23.256;2023-11-21T04:01:43;94784.78;;;2.14;100.00
57801;BME280;43627;42.728;23.256;2023-11-21T04:04:10;94780.34;;;2.04;100.00
57801;BME280;43627;42.728;23.256;2023-11-21T04:06:37;94779.06;;;1.89;100.00
57801;BME280;43627;42.728;23.256;2023-11-21T04:09:04;94779.94;;;1.59;100.00
57801;BME280;43627;42.728;23.256;2023-11-21T04:11:31;94769.50;;;1.64;100.00
57801;BME280;43627;42.728;23.256;2023-11-21T04:14:00;94771.19;;;1.55;100.00
57801;BME280;43627;42.728;23.256;2023-11-21T04:16:27;94771.13;;;1.35;100.00
57801;BME280;43627;42.728;23.256;2023-11-21T04:18:54;94785.91;;;1.20;100.00
57801;BME280;43627;42.728;23.256;2023-11-21T04:21:21;94784.88;;;1.10;100.00
57801;BME280;43627;42.728;23.256;2023-11-21T04:23:47;94779.97;;;1.32;100.00
57801;BME280;43627;42.728;23.256;2023-11-21T04:26:15;94796.91;;;1.29;100.00
57801;BME280;43627;42.728;23.256;2023-11-21T04:28:42;94791.63;;;1.22;100.00
57801;BME280;43627;42.728;23.256;2023-11-21T04:31:09;94788.84;;;1.29;100.00
57801;BME280;43627;42.728;23.256;2023-11-21T04:33:39;94786.50;;;1.31;100.00
57801;BME280;43627;42.728;23.256;2023-11-21T04:36:06;94791.78;;;1.11;100.00
57801;BME280;43627;42.728;23.256;2023-11-21T04:38:33;94794.28;;;0.95;100.00
57801;BME280;43627;42.728;23.256;2023-11-21T04:41:00;94784.06;;;1.13;100.00
57801;BME280;43627;42.728;23.256;2023-11-21T04:43:29;94785.09;;;1.23;100.00
57801;BME280;43627;42.728;23.256;2023-11-21T04:45:56;94794.69;;;1.24;100.00
57801;BME280;43627;42.728;23.256;2023-11-21T04:48:23;94789.06;;;1.14;100.00
57801;BME280;43627;42.728;23.256;2023-11-21T04:50:51;94791.28;;;1.20;100.00
57801;BME280;43627;42.728;23.256;2023-11-21T04:53:18;94791.34;;;1.16;100.00
57801;BME280;43627;42.728;23.256;2023-11-21T04:55:45;94790.41;;;1.26;100.00
57801;BME280;43627;42.728;23.256;2023-11-21T04:58:15;94793.81;;;1.30;100.00
57801;BME280;43627;42.728;23.256;2023-11-21T05:00:42;94790.97;;;1.41;100.00
57801;BME280;43627;42.728;23.256;2023-11-21T05:03:09;94793.34;;;1.62;100.00
57801;BME280;43627;42.728;23.256;2023-11-21T05:05:37;94792.94;;;1.64;100.00
57801;BME280;43627;42.728;23.256;2023-11-21T05:08:04;94795.78;;;1.53;100.00
57801;BME280;43627;42.728;23.256;2023-11-21T05:10:31;94791.09;;;1.57;100.00
57801;BME280;43627;42.728;23.256;2023-11-21T05:12:58;94778.91;;;1.76;100.00
57801;BME280;43627;42.728;23.256;2023-11-21T05:15:25;94774.53;;;1.86;100.00
57801;BME280;43627;42.728;23.256;2023-11-21T05:17:51;94778.72;;;1.87;100.00
57801;BME280;43627;42.728;23.256;2023-11-21T05:20:22;94763.31;;;1.91;100.00
57801;BME280;43627;42.728;23.256;2023-11-21T05:22:50;94775.84;;;1.97;100.00
57801;BME280;43627;42.728;23.256;2023-11-21T05:25:17;94781.28;;;2.17;100.00
57801;BME280;43627;42.728;23.256;2023-11-21T05:27:47;94786.94;;;2.23;100.00
57801;BME280;43627;42.728;23.256;2023-11-21T05:30:14;94779.09;;;2.32;100.00
57801;BME280;43627;42.728;23.256;2023-11-21T05:32:41;94796.28;;;2.38;100.00
57801;BME280;43627;42.728;23.256;2023-11-21T05:35:13;94795.38;;;2.45;100.00
57801;BME280;43627;42.728;23.256;2023-11-21T05:37:44;94795.31;;;2.48;100.00
57801;BME280;43627;42.728;23.256;2023-11-21T05:40:12;94800.97;;;2.54;100.00
57801;BME280;43627;42.728;23.256;2023-11-21T05:42:39;94800.28;;;2.70;100.00
57801;BME280;43627;42.728;23.256;2023-11-21T05:45:07;94796.72;;;2.76;100.00
57801;BME280;43627;42.728;23.256;2023-11-21T05:47:44;94782.69;;;2.65;100.00
57801;BME280;43627;42.728;23.256;2023-11-21T05:50:14;94789.81;;;2.75;100.00
57801;BME280;43627;42.728;23.256;2023-11-21T05:52:44;94787.47;;;2.77;100.00
57801;BME280;43627;42.728;23.256;2023-11-21T05:55:11;94798.16;;;2.81;100.00
57801;BME280;43627;42.728;23.256;2023-11-21T05:57:40;94794.28;;;2.82;100.00
57801;BME280;43627;42.728;23.256;2023-11-21T06:00:08;94790.78;;;2.85;100.00
57801;BME280;43627;42.728;23.256;2023-11-21T06:02:54;94800.50;;;2.79;100.00
57801;BME280;43627;42.728;23.256;2023-11-21T06:05:23;94806.66;;;2.60;100.00
57801;BME280;43627;42.728;23.256;2023-11-21T06:07:51;94806.13;;;2.45;100.00
57801;BME280;43627;42.728;23.256;2023-11-21T06:10:22;94805.56;;;2.57;100.00
57801;BME280;43627;42.728;23.256;2023-11-21T06:12:51;94808.97;;;2.38;100.00
57801;BME280;43627;42.728;23.256;2023-11-21T06:15:18;94816.16;;;2.44;100.00
57801;BME280;43627;42.728;23.256;2023-11-21T06:17:50;94813.84;;;2.23;100.00
57801;BME280;43627;42.728;23.256;2023-11-21T06:20:20;94813.72;;;2.30;100.00
57801;BME280;43627;42.728;23.256;2023-11-21T06:22:48;94813.38;;;2.28;100.00
57801;BME280;43627;42.728;23.256;2023-11-21T06:25:15;94822.66;;;2.23;100.00
57801;BME280;43627;42.728;23.256;2023-11-21T06:27:42;94822.91;;;2.33;100.00
57801;BME280;43627;42.728;23.256;2023-11-21T06:30:12;94813.72;;;2.30;100.00
57801;BME280;43627;42.728;23.256;2023-11-21T06:32:40;94821.53;;;2.44;100.00
57801;BME280;43627;42.728;23.256;2023-11-21T06:35:08;94818.47;;;2.66;100.00
57801;BME280;43627;42.728;23.256;2023-11-21T06:37:38;94819.63;;;3.04;100.00
57801;BME280;43627;42.728;23.256;2023-11-21T06:40:05;94829.31;;;3.18;100.00
57801;BME280;43627;42.728;23.256;2023-11-21T06:42:32;94836.00;;;3.30;100.00
57801;BME280;43627;42.728;23.256;2023-11-21T06:45:05;94836.31;;;3.52;100.00
57801;BME280;43627;42.728;23.256;2023-11-21T06:47:31;94826.91;;;3.76;100.00
57801;BME280;43627;42.728;23.256;2023-11-21T06:49:59;94831.53;;;3.92;100.00
57801;BME280;43627;42.728;23.256;2023-11-21T06:52:27;94830.88;;;4.20;100.00
57801;BME280;43627;42.728;23.256;2023-11-21T06:54:54;94829.50;;;4.28;100.00
57801;BME280;43627;42.728;23.256;2023-11-21T06:57:22;94836.28;;;4.49;100.00
57801;BME280;43627;42.728;23.256;2023-11-21T06:59:49;94835.09;;;4.67;100.00
57801;BME280;43627;42.728;23.256;2023-11-21T07:02:19;94835.22;;;4.76;100.00
57801;BME280;43627;42.728;23.256;2023-11-21T07:04:46;94839.47;;;5.31;100.00
57801;BME280;43627;42.728;23.256;2023-11-21T07:07:13;94836.13;;;5.40;100.00
57801;BME280;43627;42.728;23.256;2023-11-21T07:09:40;94828.31;;;5.29;100.00
57801;BME280;43627;42.728;23.256;2023-11-21T07:12:07;94840.09;;;5.23;100.00
57801;BME280;43627;42.728;23.256;2023-11-21T07:14:34;94832.31;;;5.25;100.00
57801;BME280;43627;42.728;23.256;2023-11-21T07:17:01;94832.81;;;5.07;100.00
57801;BME280;43627;42.728;23.256;2023-11-21T07:19:28;94829.56;;;4.70;100.00
57801;BME280;43627;42.728;23.256;2023-11-21T07:21:56;94832.19;;;4.74;100.00
57801;BME280;43627;42.728;23.256;2023-11-21T07:24:23;94838.06;;;4.85;100.00
57801;BME280;43627;42.728;23.256;2023-11-21T07:26:52;94837.53;;;4.90;100.00
57801;BME280;43627;42.728;23.256;2023-11-21T07:29:23;94834.06;;;4.61;100.00
57801;BME280;43627;42.728;23.256;2023-11-21T07:31:54;94839.00;;;4.78;100.00
57801;BME280;43627;42.728;23.256;2023-11-21T07:34:21;94831.16;;;4.84;100.00
57801;BME280;43627;42.728;23.256;2023-11-21T07:36:48;94833.50;;;4.82;100.00
57801;BME280;43627;42.728;23.256;2023-11-21T07:39:15;94833.31;;;4.89;100.00
57801;BME280;43627;42.728;23.256;2023-11-21T07:41:43;94832.25;;;4.99;100.00
57801;BME280;43627;42.728;23.256;2023-11-21T07:44:18;94826.66;;;5.06;100.00
57801;BME280;43627;42.728;23.256;2023-11-21T07:46:46;94821.94;;;5.23;100.00
57801;BME280;43627;42.728;23.256;2023-11-21T07:49:14;94834.13;;;5.02;100.00
57801;BME280;43627;42.728;23.256;2023-11-21T07:51:47;94830.88;;;5.07;100.00
57801;BME280;43627;42.728;23.256;2023-11-21T07:54:14;94826.56;;;5.10;100.00
57801;BME280;43627;42.728;23.256;2023-11-21T07:56:42;94826.78;;;5.03;100.00
57801;BME280;43627;42.728;23.256;2023-11-21T07:59:09;94821.88;;;4.98;100.00
57801;BME280;43627;42.728;23.256;2023-11-21T08:01:37;94819.06;;;5.01;100.00
57801;BME280;43627;42.728;23.256;2023-11-21T08:04:03;94814.22;;;5.09;100.00
57801;BME280;43627;42.728;23.256;2023-11-21T08:06:31;94815.44;;;5.21;100.00
57801;BME280;43627;42.728;23.256;2023-11-21T08:08:58;94812.00;;;5.33;100.00
57801;BME280;43627;42.728;23.256;2023-11-21T08:11:25;94812.56;;;5.40;100.00
57801;BME280;43627;42.728;23.256;2023-11-21T08:13:55;94803.25;;;5.67;100.00
57801;BME280;43627;42.728;23.256;2023-11-21T08:16:23;94807.66;;;5.86;100.00
57801;BME280;43627;42.728;23.256;2023-11-21T08:18:50;94820.56;;;5.82;100.00
57801;BME280;43627;42.728;23.256;2023-11-21T08:21:18;94817.31;;;6.00;100.00
57801;BME280;43627;42.728;23.256;2023-11-21T08:23:45;94806.56;;;6.22;100.00
57801;BME280;43627;42.728;23.256;2023-11-21T08:26:15;94812.06;;;6.31;100.00
57801;BME280;43627;42.728;23.256;2023-11-21T08:28:42;94813.78;;;6.38;100.00
57801;BME280;43627;42.728;23.256;2023-11-21T08:31:09;94788.13;;;6.29;100.00
57801;BME280;43627;42.728;23.256;2023-11-21T08:33:38;94813.00;;;6.72;100.00
57801;BME280;43627;42.728;23.256;2023-11-21T08:36:08;94810.47;;;6.55;100.00
57801;BME280;43627;42.728;23.256;2023-11-21T08:38:35;94810.50;;;6.77;100.00
57801;BME280;43627;42.728;23.256;2023-11-21T08:41:07;94814.47;;;6.85;100.00
57801;BME280;43627;42.728;23.256;2023-11-21T08:43:37;94809.06;;;6.85;100.00
57801;BME280;43627;42.728;23.256;2023-11-21T08:46:06;94809.13;;;6.95;100.00
57801;BME280;43627;42.728;23.256;2023-11-21T08:48:36;94802.25;;;7.03;100.00
57801;BME280;43627;42.728;23.256;2023-11-21T08:51:03;94804.31;;;6.99;100.00
57801;BME280;43627;42.728;23.256;2023-11-21T08:53:31;94798.13;;;6.98;100.00
57801;BME280;43627;42.728;23.256;2023-11-21T08:55:58;94783.19;;;7.15;100.00
57801;BME280;43627;42.728;23.256;2023-11-21T08:58:25;94792.91;;;7.35;100.00
57801;BME280;43627;42.728;23.256;2023-11-21T09:00:52;94786.06;;;7.52;100.00
57801;BME280;43627;42.728;23.256;2023-11-21T09:03:19;94767.88;;;7.62;100.00
57801;BME280;43627;42.728;23.256;2023-11-21T09:05:47;94758.22;;;7.61;100.00
57801;BME280;43627;42.728;23.256;2023-11-21T09:08:15;94756.38;;;7.58;100.00
57801;BME280;43627;42.728;23.256;2023-11-21T09:10:41;94762.47;;;7.71;100.00
57801;BME280;43627;42.728;23.256;2023-11-21T09:13:10;94744.72;;;7.79;100.00
57801;BME280;43627;42.728;23.256;2023-11-21T09:15:36;94741.34;;;7.66;100.00
57801;BME280;43627;42.728;23.256;2023-11-21T09:18:03;94734.72;;;7.67;100.00
57801;BME280;43627;42.728;23.256;2023-11-21T09:20:31;94723.09;;;7.66;100.00
57801;BME280;43627;42.728;23.256;2023-11-21T09:22:58;94717.06;;;7.62;100.00
57801;BME280;43627;42.728;23.256;2023-11-21T09:25:25;94707.44;;;7.61;100.00
57801;BME280;43627;42.728;23.256;2023-11-21T09:27:52;94696.56;;;7.61;100.00
57801;BME280;43627;42.728;23.256;2023-11-21T09:30:19;94699.28;;;7.61;100.00
57801;BME280;43627;42.728;23.256;2023-11-21T09:32:46;94693.13;;;7.70;100.00
57801;BME280;43627;42.728;23.256;2023-11-21T09:35:14;94697.94;;;7.66;100.00
57801;BME280;43627;42.728;23.256;2023-11-21T09:37:42;94708.25;;;7.98;100.00
57801;BME280;43627;42.728;23.256;2023-11-21T09:40:15;94702.38;;;8.27;100.00
57801;BME280;43627;42.728;23.256;2023-11-21T09:42:53;94676.56;;;8.32;100.00
57801;BME280;43627;42.728;23.256;2023-11-21T09:45:24;94669.16;;;8.32;100.00
57801;BME280;43627;42.728;23.256;2023-11-21T09:47:53;94652.44;;;8.07;98.99
57801;BME280;43627;42.728;23.256;2023-11-21T09:50:20;94645.19;;;7.85;100.00
57801;BME280;43627;42.728;23.256;2023-11-21T09:52:58;94637.38;;;8.06;100.00
57801;BME280;43627;42.728;23.256;2023-11-21T09:55:28;94641.44;;;8.38;100.00
57801;BME280;43627;42.728;23.256;2023-11-21T09:57:56;94636.75;;;8.38;98.89
57801;BME280;43627;42.728;23.256;2023-11-21T10:00:23;94644.25;;;8.62;98.76
57801;BME280;43627;42.728;23.256;2023-11-21T10:02:50;94645.66;;;8.99;99.97
57801;BME280;43627;42.728;23.256;2023-11-21T10:05:17;94636.34;;;8.91;93.90
57801;BME280;43627;42.728;23.256;2023-11-21T10:07:44;94640.81;;;9.03;94.99
57801;BME280;43627;42.728;23.256;2023-11-21T10:10:11;94633.84;;;9.35;89.16
57801;BME280;43627;42.728;23.256;2023-11-21T10:12:38;94637.19;;;9.63;89.92
57801;BME280;43627;42.728;23.256;2023-11-21T10:15:07;94625.34;;;9.66;85.65
57801;BME280;43627;42.728;23.256;2023-11-21T10:17:38;94626.22;;;9.72;84.49
57801;BME280;43627;42.728;23.256;2023-11-21T10:20:10;94613.22;;;9.77;80.13
57801;BME280;43627;42.728;23.256;2023-11-21T10:22:39;94613.78;;;9.81;80.87
57801;BME280;43627;42.728;23.256;2023-11-21T10:25:08;94607.22;;;9.87;79.66
57801;BME280;43627;42.728;23.256;2023-11-21T10:27:36;94605.13;;;9.82;78.34
57801;BME280;43627;42.728;23.256;2023-11-21T10:30:03;94609.28;;;9.92;77.27
57801;BME280;43627;42.728;23.256;2023-11-21T10:32:30;94612.97;;;9.89;78.27
57801;BME280;43627;42.728;23.256;2023-11-21T10:35:00;94593.91;;;9.89;81.42
57801;BME280;43627;42.728;23.256;2023-11-21T10:37:33;94588.25;;;9.78;76.06
57801;BME280;43627;42.728;23.256;2023-11-21T10:39:59;94586.94;;;9.50;79.30
57801;BME280;43627;42.728;23.256;2023-11-21T10:42:26;94596.53;;;9.60;81.57
57801;BME280;43627;42.728;23.256;2023-11-21T10:44:54;94597.09;;;9.88;83.78
57801;BME280;43627;42.728;23.256;2023-11-21T10:47:21;94581.63;;;9.70;86.65
57801;BME280;43627;42.728;23.256;2023-11-21T10:49:49;94568.72;;;9.56;82.78
57801;BME280;43627;42.728;23.256;2023-11-21T10:52:18;94583.16;;;9.71;82.86
57801;BME280;43627;42.728;23.256;2023-11-21T10:54:45;94570.56;;;9.73;82.42
57801;BME280;43627;42.728;23.256;2023-11-21T10:57:13;94574.44;;;9.82;83.16
57801;BME280;43627;42.728;23.256;2023-11-21T10:59:46;94571.00;;;9.96;82.53
57801;BME280;43627;42.728;23.256;2023-11-21T11:02:23;94567.06;;;9.97;78.57
57801;BME280;43627;42.728;23.256;2023-11-21T11:04:59;94569.09;;;9.87;78.15
57801;BME280;43627;42.728;23.256;2023-11-21T11:07:27;94572.09;;;9.89;78.14
57801;BME280;43627;42.728;23.256;2023-11-21T11:09:58;94551.28;;;10.01;81.52
57801;BME280;43627;42.728;23.256;2023-11-21T11:12:25;94546.97;;;10.09;81.53
57801;BME280;43627;42.728;23.256;2023-11-21T11:14:53;94546.13;;;10.18;81.87
57801;BME280;43627;42.728;23.256;2023-11-21T11:17:22;94540.78;;;10.09;84.81
57801;BME280;43627;42.728;23.256;2023-11-21T11:19:49;94542.28;;;10.10;76.38
57801;BME280;43627;42.728;23.256;2023-11-21T11:22:24;94540.47;;;9.92;75.34
57801;BME280;43627;42.728;23.256;2023-11-21T11:24:58;94535.53;;;10.05;77.29
57801;BME280;43627;42.728;23.256;2023-11-21T11:30:08;94522.84;;;10.17;75.06
57801;BME280;43627;42.728;23.256;2023-11-21T11:32:41;94524.81;;;10.31;73.89
57801;BME280;43627;42.728;23.256;2023-11-21T11:37:52;94529.25;;;10.28;72.99
57801;BME280;43627;42.728;23.256;2023-11-21T11:40:19;94528.09;;;10.20;73.35
57801;BME280;43627;42.728;23.256;2023-11-21T11:42:56;94543.31;;;10.12;74.82
57801;BME280;43627;42.728;23.256;2023-11-21T11:45:24;94545.56;;;10.14;78.22
57801;BME280;43627;42.728;23.256;2023-11-21T11:47:59;94545.09;;;10.15;87.81
57801;BME280;43627;42.728;23.256;2023-11-21T11:50:26;94554.19;;;10.12;77.95
57801;BME280;43627;42.728;23.256;2023-11-21T11:52:53;94541.41;;;9.89;81.93
57801;BME280;43627;42.728;23.256;2023-11-21T11:55:21;94524.13;;;9.77;89.49
57801;BME280;43627;42.728;23.256;2023-11-21T11:57:50;94525.56;;;9.63;92.43
57801;BME280;43627;42.728;23.256;2023-11-21T12:02:58;94531.00;;;9.25;100.00
57801;BME280;43627;42.728;23.256;2023-11-21T12:05:26;94532.03;;;9.03;100.00
57801;BME280;43627;42.728;23.256;2023-11-21T12:08:00;94540.56;;;8.87;100.00
57801;BME280;43627;42.728;23.256;2023-11-21T12:10:28;94519.50;;;8.73;100.00
57801;BME280;43627;42.728;23.256;2023-11-21T12:12:56;94526.63;;;8.61;100.00
57801;BME280;43627;42.728;23.256;2023-11-21T12:15:23;94518.19;;;8.59;100.00
57801;BME280;43627;42.728;23.256;2023-11-21T12:17:51;94526.66;;;8.52;100.00
57801;BME280;43627;42.728;23.256;2023-11-21T12:20:19;94517.69;;;8.37;100.00
57801;BME280;43627;42.728;23.256;2023-11-21T12:22:47;94518.16;;;8.26;100.00
57801;BME280;43627;42.728;23.256;2023-11-21T12:25:18;94512.00;;;8.16;100.00
57801;BME280;43627;42.728;23.256;2023-11-21T12:27:51;94509.94;;;7.84;100.00
57801;BME280;43627;42.728;23.256;2023-11-21T12:30:19;94505.84;;;7.97;100.00
57801;BME280;43627;42.728;23.256;2023-11-21T12:32:49;94504.78;;;7.95;100.00
57801;BME280;43627;42.728;23.256;2023-11-21T12:35:18;94482.31;;;7.94;100.00
57801;BME280;43627;42.728;23.256;2023-11-21T12:37:48;94501.28;;;8.13;100.00
57801;BME280;43627;42.728;23.256;2023-11-21T12:40:15;94499.44;;;8.19;100.00
57801;BME280;43627;42.728;23.256;2023-11-21T12:42:50;94497.50;;;8.19;100.00
57801;BME280;43627;42.728;23.256;2023-11-21T12:45:18;94497.94;;;8.18;100.00
57801;BME280;43627;42.728;23.256;2023-11-21T12:47:49;94483.16;;;8.19;100.00
57801;BME280;43627;42.728;23.256;2023-11-21T12:50:24;94480.59;;;8.24;100.00
57801;BME280;43627;42.728;23.256;2023-11-21T12:52:58;94473.31;;;8.30;100.00
57801;BME280;43627;42.728;23.256;2023-11-21T12:55:29;94477.06;;;8.33;100.00
57801;BME280;43627;42.728;23.256;2023-11-21T12:57:56;94478.03;;;8.21;100.00
57801;BME280;43627;42.728;23.256;2023-11-21T13:00:33;94461.41;;;8.37;100.00
57801;BME280;43627;42.728;23.256;2023-11-21T13:03:04;94466.38;;;8.39;100.00